createdAt,value
2023-01-20T00:00:01.366Z,11.28
2023-01-20T00:02:34.132Z,11.26
2023-01-20T00:05:07.732Z,11.23
2023-01-20T00:07:39.996Z,11.24
2023-01-20T00:10:14.003Z,11.22
2023-01-20T00:12:46.312Z,11.19
2023-01-20T00:15:18.671Z,11.14
2023-01-20T00:17:51.043Z,11.13
2023-01-20T00:20:23.278Z,11.14
2023-01-20T00:22:55.793Z,11.15
2023-01-20T00:25:28.044Z,11.14
2023-01-20T00:28:00.308Z,11.07
2023-01-20T00:30:32.904Z,11.06
2023-01-20T00:33:05.238Z,11.03
2023-01-20T00:35:39.783Z,11.01
2023-01-20T00:38:12.115Z,10.98
2023-01-20T00:40:44.460Z,10.97
2023-01-20T00:43:16.762Z,10.97
2023-01-20T00:45:49.091Z,10.95
2023-01-20T00:48:21.493Z,10.92
2023-01-20T00:50:53.921Z,10.86
2023-01-20T00:53:27.932Z,10.83
2023-01-20T00:56:00.311Z,10.84
2023-01-20T00:58:32.643Z,10.79
2023-01-20T01:01:05.163Z,10.74
2023-01-20T01:03:37.518Z,10.74
2023-01-20T01:06:12.244Z,10.70
2023-01-20T01:08:45.112Z,10.70
2023-01-20T01:11:17.366Z,10.63
2023-01-20T01:13:49.692Z,10.51
2023-01-20T01:16:22.077Z,10.45
2023-01-20T01:18:55.994Z,10.45
2023-01-20T01:21:28.448Z,10.46
2023-01-20T01:24:00.928Z,10.47
2023-01-20T01:26:34.355Z,10.44
2023-01-20T01:29:06.630Z,10.41
2023-01-20T01:31:39.125Z,10.41
2023-01-20T01:34:11.572Z,10.42
2023-01-20T01:36:44.052Z,10.41
2023-01-20T01:39:16.283Z,10.37
2023-01-20T01:41:48.718Z,10.37
2023-01-20T01:44:21.433Z,10.35
2023-01-20T01:46:53.731Z,10.33
2023-01-20T01:49:30.587Z,10.32
2023-01-20T01:52:10.229Z,10.31
2023-01-20T01:54:45.756Z,10.31
2023-01-20T01:57:18.259Z,10.30
2023-01-20T01:59:50.559Z,10.30
2023-01-20T02:02:24.137Z,10.26
2023-01-20T02:04:56.815Z,10.23
2023-01-20T02:07:29.528Z,10.22
2023-01-20T02:10:02.346Z,10.23
2023-01-20T02:12:34.722Z,10.24
2023-01-20T02:15:08.881Z,10.23
2023-01-20T02:17:47.465Z,10.19
2023-01-20T02:20:58.637Z,10.16
2023-01-20T02:23:46.174Z,10.15
2023-01-20T02:26:47.361Z,10.18
2023-01-20T02:29:48.600Z,10.19
2023-01-20T02:32:36.293Z,10.21
2023-01-20T02:35:16.317Z,10.23
2023-01-20T02:37:55.805Z,10.23
2023-01-20T02:40:40.812Z,10.22
2023-01-20T02:43:19.243Z,10.19
2023-01-20T02:45:57.802Z,10.11
2023-01-20T02:48:36.320Z,10.08
2023-01-20T02:51:14.453Z,10.09
2023-01-20T02:53:51.683Z,10.11
2023-01-20T02:56:27.944Z,10.14
2023-01-20T02:59:04.417Z,10.17
2023-01-20T03:01:41.470Z,10.19
2023-01-20T03:04:19.065Z,10.20
2023-01-20T03:06:55.877Z,10.22
2023-01-20T03:09:34.469Z,10.24
2023-01-20T03:12:15.347Z,10.23
2023-01-20T03:14:47.716Z,10.28
2023-01-20T03:17:20.200Z,10.29
2023-01-20T03:19:52.724Z,10.31
2023-01-20T03:22:25.552Z,10.33
2023-01-20T03:25:00.130Z,10.36
2023-01-20T03:27:32.916Z,10.39
2023-01-20T03:30:07.317Z,10.42
2023-01-20T03:32:39.791Z,10.45
2023-01-20T03:35:14.271Z,10.49
2023-01-20T03:37:47.360Z,10.53
2023-01-20T03:40:20.589Z,10.51
2023-01-20T03:42:59.768Z,10.57
2023-01-20T03:45:39.339Z,10.59
2023-01-20T03:48:18.934Z,10.61
2023-01-20T03:50:58.458Z,10.61
2023-01-20T03:53:37.574Z,10.62
2023-01-20T03:56:16.026Z,10.62
2023-01-20T03:58:52.249Z,10.62
2023-01-20T04:01:28.710Z,10.61
2023-01-20T04:04:03.317Z,10.62
2023-01-20T04:06:37.922Z,10.63
2023-01-20T04:09:13.989Z,10.63
2023-01-20T04:11:46.287Z,10.64
2023-01-20T04:14:18.747Z,10.64
2023-01-20T04:16:56.537Z,10.65
2023-01-20T04:19:29.442Z,10.66
2023-01-20T04:22:07.985Z,10.67
2023-01-20T04:24:46.104Z,10.69
2023-01-20T04:27:18.410Z,10.70
2023-01-20T04:29:50.780Z,10.73
2023-01-20T04:32:23.242Z,10.76
2023-01-20T04:34:55.565Z,10.78
2023-01-20T04:37:27.828Z,10.82
2023-01-20T04:40:00.148Z,10.86
2023-01-20T04:42:32.749Z,10.89
2023-01-20T04:45:05.549Z,10.91
2023-01-20T04:47:37.953Z,10.94
2023-01-20T04:50:12.433Z,10.97
2023-01-20T04:52:45.160Z,10.98
2023-01-20T04:55:17.640Z,10.98
2023-01-20T04:57:51.555Z,10.99
2023-01-20T05:00:24.482Z,10.99
2023-01-20T05:02:59.851Z,10.99
2023-01-20T05:05:32.377Z,11.01
2023-01-20T05:08:05.521Z,11.03
2023-01-20T05:10:38.279Z,11.05
2023-01-20T05:13:10.683Z,11.08
2023-01-20T05:15:44.033Z,11.11
2023-01-20T05:18:16.426Z,11.14
2023-01-20T05:20:50.123Z,11.19
2023-01-20T05:23:22.471Z,11.24
2023-01-20T05:25:55.179Z,11.30
2023-01-20T05:28:27.547Z,11.34
2023-01-20T05:30:59.947Z,11.38
2023-01-20T05:33:32.304Z,11.41
2023-01-20T05:36:08.362Z,11.47
2023-01-20T05:38:40.760Z,11.51
2023-01-20T05:41:13.182Z,11.54
2023-01-20T05:43:45.351Z,11.57
2023-01-20T05:46:17.628Z,11.60
2023-01-20T05:48:49.901Z,11.61
2023-01-20T05:51:22.185Z,11.61
2023-01-20T05:53:54.531Z,11.61
2023-01-20T05:56:27.069Z,11.60
2023-01-20T05:58:59.382Z,11.59
2023-01-20T06:01:31.779Z,11.58
2023-01-20T06:04:04.210Z,11.57
2023-01-20T06:06:36.672Z,11.57
2023-01-20T06:09:11.040Z,11.59
2023-01-20T06:11:43.484Z,11.61
2023-01-20T06:14:15.816Z,11.58
2023-01-20T06:16:48.180Z,11.63
2023-01-20T06:19:20.424Z,11.65
2023-01-20T06:21:53.799Z,11.67
2023-01-20T06:24:26.156Z,11.70
2023-01-20T06:26:58.423Z,11.73
2023-01-20T06:29:31.947Z,11.76
2023-01-20T06:32:04.411Z,11.79
2023-01-20T06:34:36.790Z,11.81
2023-01-20T06:37:09.039Z,11.84
2023-01-20T06:39:41.351Z,11.88
2023-01-20T06:42:13.761Z,11.92
2023-01-20T06:44:46.352Z,11.95
2023-01-20T06:47:18.722Z,12.01
2023-01-20T06:49:51.215Z,12.04
2023-01-20T06:52:23.541Z,12.07
2023-01-20T06:54:55.785Z,12.11
2023-01-20T06:57:28.135Z,12.13
2023-01-20T07:00:00.485Z,12.14
2023-01-20T07:02:32.935Z,12.15
2023-01-20T07:05:08.261Z,12.17
2023-01-20T07:07:40.597Z,12.19
2023-01-20T07:10:14.715Z,12.22
2023-01-20T07:12:47.083Z,12.26
2023-01-20T07:15:19.528Z,12.29
2023-01-20T07:17:52.170Z,12.33
2023-01-20T07:20:24.506Z,12.37
2023-01-20T07:22:56.801Z,12.41
2023-01-20T07:25:29.343Z,12.46
2023-01-20T07:28:01.572Z,12.50
2023-01-20T07:30:33.779Z,12.54
2023-01-20T07:33:06.307Z,12.59
2023-01-20T07:35:38.689Z,12.66
2023-01-20T07:38:11.005Z,12.71
2023-01-20T07:40:43.502Z,12.77
2023-01-20T07:43:15.902Z,12.81
2023-01-20T07:45:48.375Z,12.85
2023-01-20T07:48:20.876Z,12.87
2023-01-20T07:51:02.862Z,12.90
2023-01-20T07:53:36.852Z,12.93
2023-01-20T07:56:12.488Z,12.94
2023-01-20T07:58:46.294Z,12.96
2023-01-20T08:01:21.012Z,12.98
2023-01-20T08:03:54.035Z,13.00
2023-01-20T08:06:27.757Z,13.00
2023-01-20T08:09:03.179Z,12.96
2023-01-20T08:11:34.082Z,13.00
2023-01-20T08:14:06.581Z,13.00
2023-01-20T08:16:38.969Z,13.01
2023-01-20T08:19:11.300Z,13.01
2023-01-20T08:21:43.617Z,13.03
2023-01-20T08:24:15.939Z,13.08
2023-01-20T08:26:48.259Z,13.12
2023-01-20T08:29:20.603Z,13.16
2023-01-20T08:31:52.996Z,13.21
2023-01-20T08:34:25.580Z,13.25
2023-01-20T08:36:58.209Z,13.32
2023-01-20T08:39:30.611Z,13.37
2023-01-20T08:42:03.283Z,13.40
2023-01-20T08:44:35.584Z,13.44
2023-01-20T08:47:08.083Z,13.48
2023-01-20T08:49:40.350Z,13.51
2023-01-20T08:52:30.343Z,13.55
2023-01-20T08:55:02.716Z,13.58
2023-01-20T08:57:35.101Z,13.58
2023-01-20T09:00:11.123Z,13.57
2023-01-20T09:02:43.766Z,13.58
2023-01-20T09:05:16.690Z,13.59
2023-01-20T09:07:49.222Z,13.60
2023-01-20T09:10:22.360Z,13.59
2023-01-20T09:12:54.791Z,13.59
2023-01-20T09:15:27.118Z,13.59
2023-01-20T09:18:00.073Z,13.57
2023-01-20T09:20:32.513Z,13.57
2023-01-20T09:23:05.509Z,13.56
2023-01-20T09:25:37.797Z,13.58
2023-01-20T09:28:10.020Z,13.58
2023-01-20T09:30:43.135Z,13.60
2023-01-20T09:33:16.666Z,13.61
2023-01-20T09:35:57.172Z,13.63
2023-01-20T09:38:47.792Z,13.64
2023-01-20T09:41:45.597Z,13.66
2023-01-20T09:44:40.124Z,13.68
2023-01-20T09:47:26.705Z,13.69
2023-01-20T09:50:31.258Z,13.71
2023-01-20T09:53:15.678Z,13.69
2023-01-20T09:55:52.801Z,13.74
2023-01-20T09:58:33.311Z,13.76
2023-01-20T10:01:14.329Z,13.78
2023-01-20T10:03:54.328Z,13.79
2023-01-20T10:06:32.971Z,13.79
2023-01-20T10:09:10.940Z,13.82
2023-01-20T10:11:47.606Z,13.84
2023-01-20T10:14:24.190Z,13.85
2023-01-20T10:17:04.778Z,13.88
2023-01-20T10:19:45.008Z,13.91
2023-01-20T10:22:23.686Z,13.96
2023-01-20T10:25:05.644Z,14.02
2023-01-20T10:27:43.836Z,14.07
2023-01-20T10:30:18.434Z,14.10
2023-01-20T10:32:59.847Z,14.12
2023-01-20T10:35:38.237Z,14.14
2023-01-20T10:38:21.191Z,14.15
2023-01-20T10:40:58.635Z,14.19
2023-01-20T10:43:31.877Z,14.26
2023-01-20T10:46:18.351Z,14.34
2023-01-20T10:49:19.286Z,14.46
2023-01-20T10:52:05.262Z,14.64
2023-01-20T10:54:44.344Z,14.87
2023-01-20T10:57:17.869Z,15.04
2023-01-20T10:59:54.017Z,15.18
2023-01-20T11:02:29.605Z,15.24
2023-01-20T11:05:01.104Z,15.27
2023-01-20T11:07:35.690Z,15.29
2023-01-20T11:10:18.155Z,15.30
2023-01-20T11:12:54.908Z,15.29
2023-01-20T11:15:31.226Z,15.28
2023-01-20T11:18:29.083Z,15.27
2023-01-20T11:21:04.433Z,15.24
2023-01-20T11:23:40.807Z,15.24
2023-01-20T11:26:22.367Z,15.23
2023-01-20T11:28:57.193Z,15.21
2023-01-20T11:31:40.887Z,15.19
2023-01-20T11:34:26.747Z,15.17
2023-01-20T11:37:19.267Z,15.15
2023-01-20T11:40:03.515Z,15.14
2023-01-20T11:42:46.545Z,15.14
2023-01-20T11:45:34.817Z,15.15
2023-01-20T11:48:18.115Z,15.15
2023-01-20T11:50:56.298Z,15.16
2023-01-20T11:53:31.772Z,15.17
2023-01-20T11:56:07.102Z,15.18
2023-01-20T11:58:54.818Z,15.21
2023-01-20T12:01:29.552Z,15.23
2023-01-20T12:04:38.344Z,15.26
2023-01-20T12:07:16.215Z,15.27
2023-01-20T12:09:52.561Z,15.28
2023-01-20T12:12:33.734Z,15.29
2023-01-20T12:15:13.253Z,15.29
2023-01-20T12:17:59.839Z,15.29
2023-01-20T12:20:53.677Z,15.30
2023-01-20T12:23:46.140Z,15.30
2023-01-20T12:26:21.399Z,15.32
2023-01-20T12:29:01.585Z,15.33
2023-01-20T12:31:34.668Z,15.36
2023-01-20T12:34:12.356Z,15.37
2023-01-20T12:37:01.329Z,15.39
2023-01-20T12:39:48.879Z,15.40
2023-01-20T12:42:59.122Z,15.41
2023-01-20T12:45:48.226Z,15.42
2023-01-20T12:48:43.613Z,15.41
2023-01-20T12:51:28.561Z,15.43
2023-01-20T12:54:48.311Z,15.46
2023-01-20T12:57:49.054Z,15.51
2023-01-20T13:00:35.336Z,15.54
2023-01-20T13:03:35.034Z,15.63
2023-01-20T13:06:42.420Z,15.72
2023-01-20T13:09:30.292Z,15.78
2023-01-20T13:12:13.971Z,15.82
2023-01-20T13:14:50.369Z,15.85
2023-01-20T13:17:29.524Z,15.85
2023-01-20T13:20:06.130Z,15.84
2023-01-20T13:22:39.509Z,15.84
2023-01-20T13:25:19.210Z,15.78
2023-01-20T13:27:54.696Z,15.80
2023-01-20T13:30:48.150Z,15.80
2023-01-20T13:33:35.337Z,15.79
2023-01-20T13:36:19.811Z,15.78
2023-01-20T13:39:12.946Z,15.76
2023-01-20T13:41:52.359Z,15.74
2023-01-20T13:44:38.145Z,15.72
2023-01-20T13:47:12.366Z,15.70
2023-01-20T13:49:55.175Z,15.69
2023-01-20T13:53:09.124Z,15.66
2023-01-20T13:55:59.319Z,15.62
2023-01-20T13:58:33.598Z,15.60
2023-01-20T14:01:09.023Z,15.56
2023-01-20T14:03:43.206Z,15.51
2023-01-20T14:06:26.216Z,15.46
2023-01-20T14:08:58.447Z,15.39
2023-01-20T14:11:32.287Z,15.32
2023-01-20T14:14:22.877Z,15.25
2023-01-20T14:16:57.247Z,15.16
2023-01-20T14:19:32.560Z,15.04
2023-01-20T14:22:18.428Z,14.98
2023-01-20T14:24:52.741Z,14.92
2023-01-20T14:27:28.206Z,14.86
2023-01-20T14:30:14.908Z,14.81
2023-01-20T14:32:48.200Z,14.75
2023-01-20T14:35:29.061Z,14.70
2023-01-20T14:38:02.145Z,14.65
2023-01-20T14:40:36.104Z,14.56
2023-01-20T14:43:19.615Z,14.53
2023-01-20T14:45:54.310Z,14.46
2023-01-20T14:48:34.868Z,14.40
2023-01-20T14:51:11.503Z,14.34
2023-01-20T14:53:45.660Z,14.29
2023-01-20T14:56:22.912Z,14.24
2023-01-20T14:58:58.313Z,14.18
2023-01-20T15:01:30.709Z,14.13
2023-01-20T15:04:06.139Z,14.08
2023-01-20T15:06:38.380Z,14.03
2023-01-20T15:09:33.665Z,13.99
2023-01-20T15:12:39.658Z,13.94
2023-01-20T15:15:20.511Z,13.90
2023-01-20T15:18:19.952Z,13.89
2023-01-20T15:21:11.660Z,13.87
2023-01-20T15:23:52.662Z,13.84
2023-01-20T15:26:31.311Z,13.81
2023-01-20T15:29:03.719Z,13.78
2023-01-20T15:31:36.072Z,13.72
2023-01-20T15:34:09.340Z,13.66
2023-01-20T15:36:41.772Z,13.60
2023-01-20T15:39:14.498Z,13.54
2023-01-20T15:41:48.989Z,13.48
2023-01-20T15:44:21.738Z,13.43
2023-01-20T15:46:57.119Z,13.37
2023-01-20T15:49:28.124Z,13.31
2023-01-20T15:52:00.606Z,13.25
2023-01-20T15:54:32.985Z,13.21
2023-01-20T15:57:09.749Z,13.17
2023-01-20T15:59:45.521Z,13.11
2023-01-20T16:02:21.463Z,13.05
2023-01-20T16:04:53.924Z,13.01
2023-01-20T16:07:26.358Z,12.96
2023-01-20T16:09:58.578Z,12.89
2023-01-20T16:12:30.942Z,12.86
2023-01-20T16:15:03.289Z,12.80
2023-01-20T16:17:36.125Z,12.75
2023-01-20T16:20:18.137Z,12.68
2023-01-20T16:22:51.526Z,12.65
2023-01-20T16:25:24.924Z,12.60
2023-01-20T16:27:57.309Z,12.57
2023-01-20T16:30:30.090Z,12.53
2023-01-20T16:33:02.481Z,12.46
2023-01-20T16:35:35.219Z,12.45
2023-01-20T16:38:07.566Z,12.39
2023-01-20T16:40:45.671Z,12.35
2023-01-20T16:43:18.836Z,12.30
2023-01-20T16:45:55.338Z,12.26
2023-01-20T16:48:29.404Z,12.22
2023-01-20T16:51:05.569Z,12.19
2023-01-20T16:53:37.936Z,12.18
2023-01-20T16:56:15.764Z,12.15
2023-01-20T16:58:50.521Z,12.13
2023-01-20T17:01:24.841Z,12.12
2023-01-20T17:03:59.273Z,12.08
2023-01-20T17:06:33.679Z,12.06
2023-01-20T17:09:07.238Z,12.04
2023-01-20T17:11:41.621Z,11.98
2023-01-20T17:14:15.713Z,11.98
2023-01-20T17:16:48.112Z,11.97
2023-01-20T17:19:21.296Z,11.94
2023-01-20T17:21:54.846Z,11.91
2023-01-20T17:24:27.560Z,11.89
2023-01-20T17:26:59.791Z,11.88
2023-01-20T17:29:32.959Z,11.87
2023-01-20T17:32:05.603Z,11.84
2023-01-20T17:34:37.978Z,11.80
2023-01-20T17:37:10.429Z,11.76
2023-01-20T17:39:42.743Z,11.64
2023-01-20T17:42:17.556Z,11.56
2023-01-20T17:44:50.137Z,11.44
2023-01-20T17:47:22.458Z,11.35
2023-01-20T17:49:54.780Z,11.25
2023-01-20T17:52:27.154Z,11.15
2023-01-20T17:54:59.470Z,11.07
2023-01-20T17:57:32.689Z,10.98
2023-01-20T18:00:06.630Z,10.94
2023-01-20T18:02:39.112Z,10.89
2023-01-20T18:05:11.908Z,10.87
2023-01-20T18:07:44.198Z,10.85
2023-01-20T18:10:16.857Z,10.83
2023-01-20T18:12:49.458Z,10.79
2023-01-20T18:15:22.616Z,10.74
2023-01-20T18:17:54.969Z,10.71
2023-01-20T18:20:27.272Z,10.66
2023-01-20T18:23:00.012Z,10.68
2023-01-20T18:25:33.195Z,10.65
2023-01-20T18:28:05.737Z,10.64
2023-01-20T18:30:38.235Z,10.61
2023-01-20T18:33:10.525Z,10.60
2023-01-20T18:35:42.884Z,10.57
2023-01-20T18:38:15.165Z,10.56
2023-01-20T18:40:47.744Z,10.48
2023-01-20T18:43:19.988Z,10.32
2023-01-20T18:45:55.351Z,10.08
2023-01-20T18:48:28.004Z,9.69
2023-01-20T18:51:03.098Z,9.45
2023-01-20T18:53:35.567Z,9.19
2023-01-20T18:56:10.979Z,9.01
2023-01-20T18:58:47.275Z,8.90
2023-01-20T19:01:21.398Z,8.82
2023-01-20T19:03:54.039Z,8.66
2023-01-20T19:06:28.168Z,8.55
2023-01-20T19:09:01.281Z,8.51
2023-01-20T19:11:36.209Z,8.50
2023-01-20T19:14:11.190Z,8.40
2023-01-20T19:16:45.661Z,8.34
2023-01-20T19:19:19.356Z,8.25
2023-01-20T19:21:54.529Z,8.15
2023-01-20T19:24:29.263Z,8.05
2023-01-20T19:27:03.205Z,7.97
2023-01-20T19:29:35.565Z,7.93
2023-01-20T19:32:08.089Z,7.86
2023-01-20T19:34:43.716Z,7.82
2023-01-20T19:37:16.009Z,7.76
2023-01-20T19:39:50.418Z,7.72
2023-01-20T19:42:25.754Z,7.69
2023-01-20T19:44:58.369Z,7.62
2023-01-20T19:47:33.612Z,7.55
2023-01-20T19:50:06.845Z,7.50
2023-01-20T19:52:39.398Z,7.43
2023-01-20T19:55:11.742Z,7.36
2023-01-20T19:57:43.943Z,7.34
2023-01-20T20:00:18.510Z,7.28
2023-01-20T20:02:53.880Z,7.20
2023-01-20T20:05:26.209Z,7.13
2023-01-20T20:07:59.985Z,7.08
2023-01-20T20:10:32.209Z,7.02
2023-01-20T20:13:04.581Z,6.96
2023-01-20T20:15:36.961Z,6.93
2023-01-20T20:18:09.570Z,6.89
2023-01-20T20:20:43.436Z,6.86
2023-01-20T20:23:18.041Z,6.81
2023-01-20T20:25:56.083Z,6.75
2023-01-20T20:28:30.241Z,6.71
2023-01-20T20:31:08.245Z,6.65
2023-01-20T20:33:40.937Z,6.60
2023-01-20T20:36:14.317Z,6.48
2023-01-20T20:38:51.300Z,6.37
2023-01-20T20:41:25.926Z,6.31
2023-01-20T20:43:58.693Z,6.17
2023-01-20T20:46:31.069Z,5.99
2023-01-20T20:49:03.968Z,5.85
2023-01-20T20:51:37.017Z,5.74
2023-01-20T20:54:13.204Z,5.64
2023-01-20T20:56:46.490Z,5.57
2023-01-20T20:59:23.229Z,5.44
2023-01-20T21:01:55.577Z,5.36
2023-01-20T21:04:30.214Z,5.31
2023-01-20T21:07:02.503Z,5.23
2023-01-20T21:09:38.070Z,5.14
2023-01-20T21:12:10.611Z,5.05
2023-01-20T21:14:43.460Z,4.95
2023-01-20T21:17:16.196Z,4.82
2023-01-20T21:19:52.214Z,4.73
2023-01-20T21:22:24.754Z,4.66
2023-01-20T21:24:57.057Z,4.57
2023-01-20T21:27:29.466Z,4.51
2023-01-20T21:30:01.843Z,4.56
2023-01-20T21:32:34.108Z,4.57
2023-01-20T21:35:07.558Z,4.55
2023-01-20T21:37:40.105Z,4.51
2023-01-20T21:40:14.857Z,4.47
2023-01-20T21:42:47.364Z,4.43
2023-01-20T21:45:19.756Z,4.35
2023-01-20T21:47:52.099Z,4.34
2023-01-20T21:50:41.764Z,4.33
2023-01-20T21:53:16.334Z,4.36
2023-01-20T21:55:48.635Z,4.39
2023-01-20T21:58:20.929Z,4.39
2023-01-20T22:00:57.325Z,4.36
2023-01-20T22:03:29.609Z,4.32
2023-01-20T22:06:03.590Z,4.30
2023-01-20T22:08:35.887Z,4.30
2023-01-20T22:11:08.415Z,4.29
2023-01-20T22:13:40.643Z,4.27
2023-01-20T22:16:13.127Z,4.21
2023-01-20T22:18:48.041Z,4.16
2023-01-20T22:21:20.864Z,4.10
2023-01-20T22:23:53.738Z,4.05
2023-01-20T22:26:25.973Z,4.04
2023-01-20T22:28:58.359Z,4.06
2023-01-20T22:31:32.106Z,4.07
2023-01-20T22:34:06.514Z,4.02
2023-01-20T22:36:39.175Z,4.00
2023-01-20T22:39:14.204Z,3.98
2023-01-20T22:41:46.443Z,3.96
2023-01-20T22:44:18.980Z,3.97
2023-01-20T22:46:51.525Z,3.97
2023-01-20T22:49:23.940Z,3.96
2023-01-20T22:51:57.945Z,3.95
2023-01-20T22:54:30.353Z,3.93
2023-01-20T22:57:02.598Z,3.88
2023-01-20T22:59:35.803Z,3.85
2023-01-20T23:02:08.365Z,3.82
2023-01-20T23:04:40.723Z,3.78
2023-01-20T23:07:12.990Z,3.75
2023-01-20T23:09:46.492Z,3.78
2023-01-20T23:12:18.906Z,3.73
2023-01-20T23:15:00.022Z,3.71
2023-01-20T23:17:33.890Z,3.70
2023-01-20T23:20:07.370Z,3.70
2023-01-20T23:22:39.654Z,3.72
2023-01-20T23:25:12.540Z,3.75
2023-01-20T23:27:44.828Z,3.75
2023-01-20T23:30:18.397Z,3.71
2023-01-20T23:32:50.841Z,3.66
2023-01-20T23:35:23.130Z,3.65
2023-01-20T23:37:55.494Z,3.64
2023-01-20T23:40:28.590Z,3.67
2023-01-20T23:43:00.858Z,3.68
2023-01-20T23:45:33.234Z,3.68
2023-01-20T23:48:05.900Z,3.65
2023-01-20T23:50:38.254Z,3.59
2023-01-20T23:53:10.578Z,3.51
2023-01-20T23:55:42.878Z,3.44
2023-01-20T23:58:15.242Z,3.40
